Time;durP1;ratioP1;P1;durP2;ratioP2;P2;SDS_P1;SDS_P2;PMS_P1;PMS_P2;Temp;Humidity;BMP_temperature;BMP_pressure;BME280_temperature;BME280_humidity;BME280_pressure;Samples;Min_cycle;Max_cycle;Signal;HPM_P1;HPM_P2
2023/07/01 00:01:47;;;;;;;42.30;29.27;;;;;;;;;;5056772;28;20464;-77
2023/07/01 00:04:14;;;;;;;48.27;33.10;;;;;;;;;;5056860;28;20459;-77
2023/07/01 00:06:42;;;;;;;50.33;34.80;;;;;;;;;;5057040;28;20445;-77
2023/07/01 00:09:10;;;;;;;50.47;34.13;;;;;;;;;;5057246;28;20499;-77
2023/07/01 00:11:37;;;;;;;49.83;34.10;;;;;;;;;;5057001;28;21042;-77
2023/07/01 00:14:05;;;;;;;44.40;32.10;;;;;;;;;;5057041;28;20455;-77
2023/07/01 00:16:33;;;;;;;44.37;33.87;;;;;;;;;;5056662;28;20460;-77
2023/07/01 00:19:00;;;;;;;46.83;33.50;;;;;;;;;;5056612;28;20465;-77
2023/07/01 00:21:27;;;;;;;48.57;33.00;;;;;;;;;;5056868;28;20832;-77
2023/07/01 00:23:54;;;;;;;48.00;33.77;;;;;;;;;;5057252;28;20453;-77
2023/07/01 00:26:21;;;;;;;49.93;32.10;;;;;;;;;;5056693;28;20441;-77
2023/07/01 00:28:48;;;;;;;48.87;34.10;;;;;;;;;;5057453;28;20813;-77
2023/07/01 00:31:17;;;;;;;55.80;38.10;;;;;;;;;;5056784;28;20491;-77
2023/07/01 00:33:44;;;;;;;49.73;33.20;;;;;;;;;;5056449;28;20449;-77
2023/07/01 00:36:11;;;;;;;55.30;36.93;;;;;;;;;;5056564;28;20464;-77
2023/07/01 00:38:38;;;;;;;54.60;38.27;;;;;;;;;;5056487;28;20506;-77
2023/07/01 00:41:05;;;;;;;55.00;34.40;;;;;;;;;;5056233;28;20469;-77
2023/07/01 00:43:33;;;;;;;46.13;33.40;;;;;;;;;;5056443;28;20921;-77
2023/07/01 00:46:00;;;;;;;55.17;34.70;;;;;;;;;;5056294;28;20460;-77
2023/07/01 00:48:29;;;;;;;52.90;36.13;;;;;;;;;;5056255;28;20479;-77
2023/07/01 00:50:56;;;;;;;57.23;35.07;;;;;;;;;;5056327;28;20495;-78
2023/07/01 00:53:24;;;;;;;58.30;40.80;;;;;;;;;;5056357;28;20456;-77
2023/07/01 00:55:53;;;;;;;55.40;36.40;;;;;;;;;;5055760;28;20459;-76
2023/07/01 00:58:20;;;;;;;53.67;36.80;;;;;;;;;;5056687;28;20455;-77
2023/07/01 01:00:48;;;;;;;50.10;34.83;;;;;;;;;;5056611;28;20523;-77
2023/07/01 01:03:22;;;;;;;53.10;36.33;;;;;;;;;;5056517;28;20774;-77
2023/07/01 01:05:56;;;;;;;54.50;38.10;;;;;;;;;;5056224;28;20518;-77
2023/07/01 01:08:28;;;;;;;60.30;39.50;;;;;;;;;;5056389;28;20437;-77
2023/07/01 01:10:56;;;;;;;59.60;37.70;;;;;;;;;;5055412;28;20488;-77
2023/07/01 01:13:25;;;;;;;56.90;38.93;;;;;;;;;;5056169;28;20452;-77
2023/07/01 01:15:52;;;;;;;63.47;39.57;;;;;;;;;;5056189;28;20457;-77
2023/07/01 01:18:21;;;;;;;59.90;39.87;;;;;;;;;;5055154;28;20464;-77
2023/07/01 01:20:50;;;;;;;61.53;38.47;;;;;;;;;;5055449;28;20468;-77
2023/07/01 01:23:23;;;;;;;62.10;41.00;;;;;;;;;;5055518;28;20457;-77
2023/07/01 01:25:53;;;;;;;61.53;41.77;;;;;;;;;;5055319;28;20437;-77
2023/07/01 01:28:22;;;;;;;50.83;38.40;;;;;;;;;;5055504;28;20441;-77
2023/07/01 01:30:49;;;;;;;67.10;41.33;;;;;;;;;;5055309;28;20989;-78
2023/07/01 01:33:17;;;;;;;53.93;36.60;;;;;;;;;;5054761;28;20463;-77
2023/07/01 01:35:44;;;;;;;60.27;39.70;;;;;;;;;;5054709;28;20456;-77
2023/07/01 01:38:14;;;;;;;62.80;40.97;;;;;;;;;;5055271;28;21155;-77
2023/07/01 01:40:44;;;;;;;66.33;38.00;;;;;;;;;;5054818;28;20465;-77
2023/07/01 01:43:14;;;;;;;59.93;40.10;;;;;;;;;;5055161;28;20930;-77
2023/07/01 01:45:44;;;;;;;67.30;41.20;;;;;;;;;;5054654;28;20453;-77
2023/07/01 01:48:12;;;;;;;56.87;38.17;;;;;;;;;;5054518;28;20445;-77
2023/07/01 01:50:40;;;;;;;59.40;38.40;;;;;;;;;;5054439;28;20476;-77
2023/07/01 01:53:08;;;;;;;59.60;39.27;;;;;;;;;;5054215;28;20457;-77
2023/07/01 01:55:35;;;;;;;52.43;38.60;;;;;;;;;;5054552;28;20457;-77
2023/07/01 01:58:02;;;;;;;58.17;37.93;;;;;;;;;;5054460;28;20830;-77
2023/07/01 02:00:30;;;;;;;54.33;36.50;;;;;;;;;;5054404;28;20475;-77
2023/07/01 02:02:58;;;;;;;58.63;38.77;;;;;;;;;;5054309;28;20798;-77
2023/07/01 02:05:25;;;;;;;63.97;38.83;;;;;;;;;;5053987;28;20457;-76
2023/07/01 02:07:52;;;;;;;51.03;34.90;;;;;;;;;;5054223;28;20937;-77
2023/07/01 02:10:19;;;;;;;56.50;37.77;;;;;;;;;;5054124;28;20480;-76
2023/07/01 02:12:47;;;;;;;54.97;36.80;;;;;;;;;;5054258;28;20473;-77
2023/07/01 02:15:14;;;;;;;60.80;38.67;;;;;;;;;;5053911;28;20449;-76
2023/07/01 02:17:41;;;;;;;60.50;38.20;;;;;;;;;;5053682;28;20543;-77
2023/07/01 02:20:11;;;;;;;61.20;38.37;;;;;;;;;;5053997;28;20473;-77
2023/07/01 02:22:38;;;;;;;67.07;41.23;;;;;;;;;;5053195;28;20433;-76
2023/07/01 02:25:06;;;;;;;56.40;38.23;;;;;;;;;;5053773;28;20453;-77
2023/07/01 02:27:33;;;;;;;59.87;40.73;;;;;;;;;;5053633;28;20433;-77
2023/07/01 02:30:02;;;;;;;61.50;40.33;;;;;;;;;;5054055;28;20472;-77
2023/07/01 02:32:29;;;;;;;66.77;42.90;;;;;;;;;;5053643;28;20534;-77
2023/07/01 02:34:56;;;;;;;75.97;41.97;;;;;;;;;;5054126;28;20815;-77
2023/07/01 02:37:25;;;;;;;73.97;45.03;;;;;;;;;;5053775;28;20455;-77
2023/07/01 02:39:52;;;;;;;69.70;42.97;;;;;;;;;;5053712;28;20496;-77
2023/07/01 02:42:20;;;;;;;74.63;42.70;;;;;;;;;;5054077;28;20812;-78
2023/07/01 02:44:47;;;;;;;64.70;41.53;;;;;;;;;;5054056;28;20513;-78
2023/07/01 02:47:14;;;;;;;71.20;45.80;;;;;;;;;;5053850;28;20457;-77
2023/07/01 02:49:41;;;;;;;70.10;43.80;;;;;;;;;;5054116;28;20448;-78
2023/07/01 02:52:09;;;;;;;66.53;40.40;;;;;;;;;;5054151;28;20510;-78
2023/07/01 02:54:38;;;;;;;65.33;42.20;;;;;;;;;;5054072;28;20449;-77
2023/07/01 02:57:07;;;;;;;71.43;44.40;;;;;;;;;;5053635;28;20459;-77
2023/07/01 02:59:34;;;;;;;67.23;42.07;;;;;;;;;;5053785;28;20453;-77
2023/07/01 03:02:02;;;;;;;62.17;41.47;;;;;;;;;;5053987;28;20436;-77
2023/07/01 03:04:29;;;;;;;66.53;41.90;;;;;;;;;;5054005;28;20460;-77
2023/07/01 03:06:56;;;;;;;71.53;41.67;;;;;;;;;;5053977;28;20953;-77
2023/07/01 03:09:23;;;;;;;61.50;40.93;;;;;;;;;;5054148;28;20463;-77
2023/07/01 03:11:52;;;;;;;61.97;40.80;;;;;;;;;;5053708;28;20538;-77
2023/07/01 03:14:20;;;;;;;64.70;42.17;;;;;;;;;;5053292;28;20506;-77
2023/07/01 03:16:49;;;;;;;68.33;41.97;;;;;;;;;;5053882;28;20945;-77
2023/07/01 03:19:16;;;;;;;61.13;40.57;;;;;;;;;;5053234;28;20464;-77
2023/07/01 03:21:44;;;;;;;55.23;38.10;;;;;;;;;;5053440;28;20944;-77
2023/07/01 03:24:11;;;;;;;58.73;40.30;;;;;;;;;;5053494;28;20456;-77
2023/07/01 03:26:38;;;;;;;57.93;39.17;;;;;;;;;;5053602;28;20867;-77
2023/07/01 03:29:07;;;;;;;63.03;39.47;;;;;;;;;;5053547;28;20948;-77
2023/07/01 03:31:35;;;;;;;63.83;39.17;;;;;;;;;;5053270;28;20575;-77
2023/07/01 03:34:02;;;;;;;63.13;40.60;;;;;;;;;;5057019;28;20551;-77
2023/07/01 03:36:29;;;;;;;63.87;40.53;;;;;;;;;;5058130;28;20948;-77
2023/07/01 03:38:56;;;;;;;51.63;37.50;;;;;;;;;;5058080;28;20460;-77
2023/07/01 03:41:23;;;;;;;67.80;42.80;;;;;;;;;;5057488;28;20476;-77
2023/07/01 03:43:50;;;;;;;62.90;41.03;;;;;;;;;;5057838;28;20452;-77
2023/07/01 03:46:19;;;;;;;63.20;41.17;;;;;;;;;;5056846;28;20464;-77
2023/07/01 03:48:46;;;;;;;62.97;40.17;;;;;;;;;;5056610;28;20467;-77
2023/07/01 03:51:15;;;;;;;60.53;39.27;;;;;;;;;;5056844;28;20961;-77
2023/07/01 03:53:42;;;;;;;60.73;40.80;;;;;;;;;;5056492;28;20464;-77
2023/07/01 03:56:09;;;;;;;59.10;38.90;;;;;;;;;;5056636;28;20921;-77
2023/07/01 03:58:36;;;;;;;55.50;38.43;;;;;;;;;;5056280;28;20448;-77
2023/07/01 04:01:04;;;;;;;55.93;39.20;;;;;;;;;;5056451;28;20480;-77
2023/07/01 04:03:33;;;;;;;53.53;36.60;;;;;;;;;;5056808;28;20539;-77
2023/07/01 04:06:01;;;;;;;56.40;39.50;;;;;;;;;;5056637;28;20464;-77
2023/07/01 04:08:28;;;;;;;58.57;38.27;;;;;;;;;;5056516;28;20449;-77
2023/07/01 04:10:56;;;;;;;64.63;38.13;;;;;;;;;;5056542;28;20559;-77
2023/07/01 04:13:23;;;;;;;53.10;37.20;;;;;;;;;;5056553;28;20565;-77
2023/07/01 04:15:50;;;;;;;58.23;37.30;;;;;;;;;;5056156;28;20941;-77
2023/07/01 04:18:18;;;;;;;55.80;37.40;;;;;;;;;;5055724;28;20460;-77
2023/07/01 04:20:46;;;;;;;52.73;34.50;;;;;;;;;;5055730;28;20477;-77
2023/07/01 04:23:13;;;;;;;43.63;33.40;;;;;;;;;;5056251;28;20464;-77
2023/07/01 04:25:40;;;;;;;55.13;37.87;;;;;;;;;;5055612;28;20963;-77
2023/07/01 04:28:09;;;;;;;50.43;35.20;;;;;;;;;;5055774;28;20437;-77
2023/07/01 04:30:36;;;;;;;52.73;33.23;;;;;;;;;;5055461;28;20812;-77
2023/07/01 04:33:03;;;;;;;61.10;37.40;;;;;;;;;;5055498;28;20488;-77
2023/07/01 04:35:30;;;;;;;51.07;33.70;;;;;;;;;;5055954;28;20444;-77
2023/07/01 04:37:58;;;;;;;50.53;34.93;;;;;;;;;;5055990;28;20444;-77
2023/07/01 04:40:26;;;;;;;50.03;33.67;;;;;;;;;;5055611;28;20485;-77
2023/07/01 04:42:53;;;;;;;47.50;35.10;;;;;;;;;;5056100;28;20480;-78
2023/07/01 04:45:21;;;;;;;54.03;36.57;;;;;;;;;;5055520;28;20460;-77
2023/07/01 04:47:48;;;;;;;56.73;36.07;;;;;;;;;;5055969;28;20968;-77
2023/07/01 04:50:15;;;;;;;52.53;35.80;;;;;;;;;;5055480;28;20477;-77
2023/07/01 04:52:43;;;;;;;55.00;37.53;;;;;;;;;;5055325;28;20488;-77
2023/07/01 04:55:11;;;;;;;50.67;34.73;;;;;;;;;;5055560;28;20527;-77
2023/07/01 04:57:38;;;;;;;56.40;35.73;;;;;;;;;;5055851;28;20475;-78
2023/07/01 05:00:10;;;;;;;54.73;36.53;;;;;;;;;;5055084;28;20465;-77
2023/07/01 05:02:37;;;;;;;50.00;35.40;;;;;;;;;;5055506;28;20924;-77
2023/07/01 05:05:04;;;;;;;52.20;35.77;;;;;;;;;;5055242;28;20461;-77
2023/07/01 05:07:31;;;;;;;51.97;33.57;;;;;;;;;;5055146;28;20456;-77
2023/07/01 05:09:58;;;;;;;51.27;32.67;;;;;;;;;;5055452;28;20832;-78
2023/07/01 05:12:27;;;;;;;55.73;34.03;;;;;;;;;;5055343;28;20989;-78
2023/07/01 05:14:54;;;;;;;47.87;32.73;;;;;;;;;;5055698;28;20801;-78
2023/07/01 05:17:21;;;;;;;50.03;34.27;;;;;;;;;;5055587;28;20872;-77
2023/07/01 05:19:48;;;;;;;50.70;32.73;;;;;;;;;;5055198;28;20460;-77
2023/07/01 05:22:17;;;;;;;47.43;33.77;;;;;;;;;;5055186;28;20962;-77
2023/07/01 05:24:45;;;;;;;45.87;30.03;;;;;;;;;;5055098;28;20854;-77
2023/07/01 05:27:12;;;;;;;47.53;31.77;;;;;;;;;;5054915;28;20439;-77
2023/07/01 05:29:41;;;;;;;48.77;35.33;;;;;;;;;;5054672;28;20457;-77
2023/07/01 05:32:08;;;;;;;48.13;33.40;;;;;;;;;;5054534;28;20484;-78
2023/07/01 05:34:36;;;;;;;45.80;30.27;;;;;;;;;;5054869;28;20453;-77
2023/07/01 05:37:03;;;;;;;43.60;31.17;;;;;;;;;;5054677;28;20459;-77
2023/07/01 05:39:30;;;;;;;49.23;32.10;;;;;;;;;;5052224;28;20460;-78
2023/07/01 05:41:57;;;;;;;48.90;31.60;;;;;;;;;;5053365;28;20429;-77
2023/07/01 05:44:25;;;;;;;44.50;30.40;;;;;;;;;;5053176;28;20475;-77
2023/07/01 05:46:54;;;;;;;43.67;28.50;;;;;;;;;;5053246;28;20452;-77
2023/07/01 05:49:21;;;;;;;42.87;28.50;;;;;;;;;;5052965;28;20460;-77
2023/07/01 05:51:48;;;;;;;44.30;29.20;;;;;;;;;;5052776;28;20477;-77
2023/07/01 05:54:15;;;;;;;42.03;27.20;;;;;;;;;;5052893;28;20453;-77
2023/07/01 05:56:42;;;;;;;43.70;30.03;;;;;;;;;;5053201;28;20793;-77
2023/07/01 05:59:09;;;;;;;37.17;28.90;;;;;;;;;;5052803;28;20459;-76
2023/07/01 06:01:36;;;;;;;38.77;28.47;;;;;;;;;;5053126;28;20495;-77
2023/07/01 06:04:05;;;;;;;37.60;24.90;;;;;;;;;;5053018;28;20471;-77
2023/07/01 06:06:33;;;;;;;39.90;25.60;;;;;;;;;;5052797;28;20452;-77
2023/07/01 06:09:00;;;;;;;40.63;26.40;;;;;;;;;;5053041;28;20453;-78
2023/07/01 06:11:27;;;;;;;40.50;26.50;;;;;;;;;;5052774;28;20475;-77
2023/07/01 06:13:54;;;;;;;37.40;25.53;;;;;;;;;;5052860;28;20495;-77
2023/07/01 06:16:21;;;;;;;31.60;22.00;;;;;;;;;;5052739;28;20465;-77
2023/07/01 06:18:49;;;;;;;37.80;25.70;;;;;;;;;;5052678;28;20839;-77
2023/07/01 06:21:19;;;;;;;34.07;24.83;;;;;;;;;;5052493;28;20911;-77
2023/07/01 06:23:46;;;;;;;34.63;23.43;;;;;;;;;;5052773;28;20484;-76
2023/07/01 06:26:14;;;;;;;34.77;22.63;;;;;;;;;;5053093;28;20794;-77
2023/07/01 06:28:41;;;;;;;32.07;22.90;;;;;;;;;;5052753;28;20459;-78
2023/07/01 06:31:08;;;;;;;27.80;18.73;;;;;;;;;;5052291;28;20473;-76
2023/07/01 06:33:38;;;;;;;22.20;17.17;;;;;;;;;;5052585;28;20499;-77
2023/07/01 06:36:05;;;;;;;25.37;19.03;;;;;;;;;;5052759;28;21019;-77
2023/07/01 06:38:34;;;;;;;25.60;17.37;;;;;;;;;;5052735;28;20937;-76
2023/07/01 06:41:01;;;;;;;23.37;15.63;;;;;;;;;;5052316;28;20469;-77
2023/07/01 06:43:28;;;;;;;26.40;16.73;;;;;;;;;;5052690;28;20814;-76
2023/07/01 06:45:55;;;;;;;20.33;15.20;;;;;;;;;;5052424;28;20460;-77
2023/07/01 06:48:23;;;;;;;22.23;16.00;;;;;;;;;;5052411;28;20491;-77
2023/07/01 06:50:50;;;;;;;25.50;16.30;;;;;;;;;;5052748;28;20473;-77
2023/07/01 06:53:17;;;;;;;19.30;13.57;;;;;;;;;;5052429;28;21036;-77
2023/07/01 06:55:45;;;;;;;20.13;14.90;;;;;;;;;;5052555;28;20931;-77
2023/07/01 06:58:13;;;;;;;19.23;15.50;;;;;;;;;;5052403;28;20453;-77
2023/07/01 07:00:40;;;;;;;19.60;13.00;;;;;;;;;;5052350;28;20960;-77
2023/07/01 07:03:07;;;;;;;17.90;13.40;;;;;;;;;;5052516;28;20801;-77
2023/07/01 07:05:34;;;;;;;15.40;11.83;;;;;;;;;;5052234;28;20983;-76
2023/07/01 07:08:01;;;;;;;16.47;12.20;;;;;;;;;;5051845;28;20457;-77
2023/07/01 07:10:28;;;;;;;14.97;11.07;;;;;;;;;;5051973;28;20492;-77
2023/07/01 07:12:57;;;;;;;13.90;10.17;;;;;;;;;;5051998;28;20985;-78
2023/07/01 07:15:24;;;;;;;18.50;9.70;;;;;;;;;;5052643;28;20453;-77
2023/07/01 07:17:51;;;;;;;13.20;9.53;;;;;;;;;;5053234;28;20939;-78
2023/07/01 07:20:18;;;;;;;15.73;8.07;;;;;;;;;;5053008;28;20457;-77
2023/07/01 07:22:46;;;;;;;13.80;8.17;;;;;;;;;;5052916;28;20456;-77
2023/07/01 07:25:16;;;;;;;15.20;9.80;;;;;;;;;;5052981;28;20941;-77
2023/07/01 07:27:44;;;;;;;10.23;8.20;;;;;;;;;;5051617;28;20983;-77
2023/07/01 07:30:13;;;;;;;12.37;8.97;;;;;;;;;;5051803;28;20479;-77
2023/07/01 07:32:40;;;;;;;12.10;8.40;;;;;;;;;;5051820;28;20863;-76
2023/07/01 07:35:07;;;;;;;12.13;8.00;;;;;;;;;;5052041;28;20944;-76
2023/07/01 07:37:35;;;;;;;9.60;7.70;;;;;;;;;;5051076;28;20459;-77
2023/07/01 07:40:05;;;;;;;14.77;7.53;;;;;;;;;;5051514;28;20469;-77
2023/07/01 07:42:32;;;;;;;10.80;6.90;;;;;;;;;;5052126;28;20579;-77
2023/07/01 07:45:00;;;;;;;9.10;6.60;;;;;;;;;;5051555;28;20448;-77
2023/07/01 07:47:28;;;;;;;6.93;5.40;;;;;;;;;;5051504;28;20484;-77
2023/07/01 07:49:56;;;;;;;12.30;7.87;;;;;;;;;;5051311;28;20991;-77
2023/07/01 07:52:23;;;;;;;10.80;7.73;;;;;;;;;;5051046;28;20455;-77
2023/07/01 07:54:50;;;;;;;10.87;6.70;;;;;;;;;;5051546;28;20440;-77
2023/07/01 07:57:17;;;;;;;10.80;6.30;;;;;;;;;;5051772;28;20449;-76
2023/07/01 07:59:44;;;;;;;8.87;6.63;;;;;;;;;;5051644;28;20473;-77
2023/07/01 08:02:12;;;;;;;7.57;5.57;;;;;;;;;;5051935;28;20453;-77
2023/07/01 08:04:40;;;;;;;5.97;5.37;;;;;;;;;;5051588;28;20453;-77
2023/07/01 08:07:08;;;;;;;8.80;5.97;;;;;;;;;;5051105;28;20463;-76
2023/07/01 08:09:36;;;;;;;11.23;7.93;;;;;;;;;;5050990;28;20445;-77
2023/07/01 08:12:03;;;;;;;9.07;5.70;;;;;;;;;;5051809;28;20551;-77
2023/07/01 08:14:30;;;;;;;9.50;8.00;;;;;;;;;;5051448;28;20492;-77
2023/07/01 08:16:58;;;;;;;13.33;7.80;;;;;;;;;;5051428;28;20536;-76
2023/07/01 08:19:25;;;;;;;6.77;6.07;;;;;;;;;;5051829;28;20979;-77
2023/07/01 08:21:54;;;;;;;8.43;6.10;;;;;;;;;;5054587;28;20477;-78
2023/07/01 08:24:22;;;;;;;6.37;5.73;;;;;;;;;;5054956;28;20553;-78
2023/07/01 08:26:49;;;;;;;7.57;6.13;;;;;;;;;;5055126;28;20437;-77
2023/07/01 08:29:16;;;;;;;5.77;5.17;;;;;;;;;;5054912;28;20483;-77
2023/07/01 08:31:43;;;;;;;12.23;6.43;;;;;;;;;;5055155;28;20480;-77
2023/07/01 08:34:10;;;;;;;9.73;7.50;;;;;;;;;;5054346;28;20488;-77
2023/07/01 08:36:38;;;;;;;6.23;5.40;;;;;;;;;;5054272;28;20821;-78
2023/07/01 08:39:07;;;;;;;11.53;6.43;;;;;;;;;;5054706;28;21116;-77
2023/07/01 08:41:37;;;;;;;8.40;6.03;;;;;;;;;;5054524;28;20499;-77
2023/07/01 08:44:05;;;;;;;7.23;5.70;;;;;;;;;;5054611;28;20448;-78
2023/07/01 08:46:32;;;;;;;6.70;5.90;;;;;;;;;;5054556;28;20815;-77
2023/07/01 08:49:00;;;;;;;7.07;6.07;;;;;;;;;;5054827;28;20452;-77
2023/07/01 08:51:28;;;;;;;5.73;5.10;;;;;;;;;;5054732;28;20495;-77
2023/07/01 08:53:56;;;;;;;9.07;5.40;;;;;;;;;;5054849;28;20845;-76
2023/07/01 08:56:24;;;;;;;7.17;5.80;;;;;;;;;;5054464;28;20449;-78
2023/07/01 08:58:52;;;;;;;8.63;7.20;;;;;;;;;;5054393;28;20472;-77
2023/07/01 09:01:19;;;;;;;11.50;7.13;;;;;;;;;;5053359;28;20495;-76
2023/07/01 09:03:48;;;;;;;6.90;5.77;;;;;;;;;;5054149;28;20453;-75
2023/07/01 09:06:15;;;;;;;7.90;5.67;;;;;;;;;;5053691;28;20464;-75
2023/07/01 09:08:42;;;;;;;7.07;6.37;;;;;;;;;;5054101;28;20951;-75
2023/07/01 09:11:11;;;;;;;8.30;7.17;;;;;;;;;;5053891;28;20475;-75
2023/07/01 09:13:40;;;;;;;8.00;6.30;;;;;;;;;;5067231;22;20556;-76
2023/07/01 09:16:08;;;;;;;12.40;7.03;;;;;;;;;;5074218;28;20452;-76
2023/07/01 09:18:35;;;;;;;7.87;6.27;;;;;;;;;;5073555;28;20505;-77
2023/07/01 09:21:03;;;;;;;8.00;6.13;;;;;;;;;;5073916;28;20472;-77
2023/07/01 09:23:31;;;;;;;7.67;6.90;;;;;;;;;;5073818;28;20440;-77
2023/07/01 09:26:15;;;;;;;7.97;7.00;;;;;;;;;;5073338;28;20462;-77
2023/07/01 09:28:44;;;;;;;6.10;5.43;;;;;;;;;;5073546;28;20927;-77
2023/07/01 09:31:12;;;;;;;11.50;6.60;;;;;;;;;;5073179;28;20954;-77
2023/07/01 09:33:39;;;;;;;7.30;5.83;;;;;;;;;;5073477;28;20483;-77
2023/07/01 09:36:07;;;;;;;7.90;6.67;;;;;;;;;;5073426;28;20455;-76
2023/07/01 09:38:35;;;;;;;7.30;6.60;;;;;;;;;;5073276;28;20450;-76
2023/07/01 09:41:15;;;;;;;9.73;6.60;;;;;;;;;;5073629;28;20463;-77
2023/07/01 09:43:43;;;;;;;7.93;6.50;;;;;;;;;;5073404;28;20446;-77
2023/07/01 09:46:11;;;;;;;8.17;7.10;;;;;;;;;;5073488;28;20458;-77
2023/07/01 09:48:38;;;;;;;9.70;8.17;;;;;;;;;;5073121;28;20456;-76
2023/07/01 09:51:06;;;;;;;7.43;5.90;;;;;;;;;;5073049;28;20475;-76
2023/07/01 09:53:34;;;;;;;8.60;7.63;;;;;;;;;;5073325;28;20999;-77
2023/07/01 09:56:02;;;;;;;9.13;7.13;;;;;;;;;;5073275;28;20451;-76
2023/07/01 09:58:29;;;;;;;7.73;6.23;;;;;;;;;;5072961;28;20837;-76
2023/07/01 10:00:58;;;;;;;11.20;6.60;;;;;;;;;;5073214;28;20463;-76
2023/07/01 10:03:26;;;;;;;7.97;7.17;;;;;;;;;;5073127;28;20525;-77
2023/07/01 10:05:54;;;;;;;11.80;7.53;;;;;;;;;;5073072;28;20817;-76
2023/07/01 10:08:21;;;;;;;8.03;7.20;;;;;;;;;;5072688;28;20821;-76
2023/07/01 10:10:56;;;;;;;9.17;6.33;;;;;;;;;;5072833;28;21016;-76
2023/07/01 10:13:23;;;;;;;6.27;5.70;;;;;;;;;;5072489;28;20503;-76
2023/07/01 10:15:50;;;;;;;7.13;6.43;;;;;;;;;;5072985;28;20451;-76
2023/07/01 10:18:22;;;;;;;6.70;6.10;;;;;;;;;;5072435;28;20452;-76
2023/07/01 10:20:50;;;;;;;10.70;6.37;;;;;;;;;;5072743;28;20476;-76
2023/07/01 10:23:17;;;;;;;7.77;5.80;;;;;;;;;;5072762;28;20549;-76
2023/07/01 10:25:45;;;;;;;7.73;5.73;;;;;;;;;;5072563;28;20497;-76
2023/07/01 10:28:12;;;;;;;7.73;5.57;;;;;;;;;;5072570;28;20452;-77
2023/07/01 10:30:57;;;;;;;8.17;7.07;;;;;;;;;;5072375;28;20927;-77
2023/07/01 10:33:42;;;;;;;6.07;5.47;;;;;;;;;;5072479;28;20466;-77
2023/07/01 10:36:13;;;;;;;6.10;5.60;;;;;;;;;;5059390;28;20455;-76
2023/07/01 10:38:40;;;;;;;10.60;5.47;;;;;;;;;;5072255;28;20459;-76
2023/07/01 10:41:08;;;;;;;7.43;4.40;;;;;;;;;;5072278;28;20478;-76
2023/07/01 10:43:36;;;;;;;5.37;4.67;;;;;;;;;;5071794;28;20447;-76
2023/07/01 10:46:08;;;;;;;5.47;4.53;;;;;;;;;;5072408;28;20455;-77
2023/07/01 10:48:35;;;;;;;6.60;5.17;;;;;;;;;;5071241;28;20452;-76
2023/07/01 10:51:04;;;;;;;7.97;5.27;;;;;;;;;;5057652;28;20864;-77
2023/07/01 10:53:32;;;;;;;5.07;4.63;;;;;;;;;;5050725;28;20453;-77
2023/07/01 10:56:15;;;;;;;5.90;5.33;;;;;;;;;;5051076;28;20452;-76
2023/07/01 10:58:43;;;;;;;6.30;5.20;;;;;;;;;;5048155;28;20965;-77
2023/07/01 11:01:30;;;;;;;6.57;5.60;;;;;;;;;;5050734;28;20479;-77
2023/07/01 11:03:58;;;;;;;4.83;4.37;;;;;;;;;;5050506;28;20524;-77
2023/07/01 11:06:25;;;;;;;6.50;5.50;;;;;;;;;;5051037;28;20452;-77
2023/07/01 11:08:56;;;;;;;6.03;4.50;;;;;;;;;;5050730;28;20948;-77
2023/07/01 11:11:24;;;;;;;6.13;5.50;;;;;;;;;;5050756;28;20945;-76
2023/07/01 11:14:01;;;;;;;5.73;4.40;;;;;;;;;;5050633;28;20488;-76
2023/07/01 11:16:29;;;;;;;5.30;4.80;;;;;;;;;;5050542;28;20471;-76
2023/07/01 11:18:57;;;;;;;7.73;7.00;;;;;;;;;;5050538;28;20480;-76
2023/07/01 11:21:25;;;;;;;7.30;5.23;;;;;;;;;;5050361;28;20473;-76
2023/07/01 11:23:53;;;;;;;4.97;4.43;;;;;;;;;;5050345;28;20480;-77
2023/07/01 11:26:22;;;;;;;5.23;4.73;;;;;;;;;;5050431;28;20457;-76
2023/07/01 11:28:49;;;;;;;5.87;5.10;;;;;;;;;;5050569;28;20457;-76
2023/07/01 11:31:17;;;;;;;5.30;4.80;;;;;;;;;;5050494;28;20472;-76
2023/07/01 11:33:45;;;;;;;5.10;4.70;;;;;;;;;;5050302;28;21011;-76
2023/07/01 11:36:13;;;;;;;5.47;4.93;;;;;;;;;;5050385;28;20802;-77
2023/07/01 11:38:41;;;;;;;5.47;4.97;;;;;;;;;;5050214;28;20483;-77
2023/07/01 11:41:08;;;;;;;7.43;4.77;;;;;;;;;;5050301;28;20483;-76
2023/07/01 11:43:36;;;;;;;5.00;4.53;;;;;;;;;;5050357;28;21012;-76
2023/07/01 11:46:03;;;;;;;6.10;5.50;;;;;;;;;;5050192;28;20456;-76
2023/07/01 11:48:31;;;;;;;4.97;4.57;;;;;;;;;;5050196;28;20952;-76
2023/07/01 11:50:59;;;;;;;5.67;4.97;;;;;;;;;;5050221;28;20519;-76
2023/07/01 11:53:27;;;;;;;6.23;5.63;;;;;;;;;;5051111;28;20456;-76
2023/07/01 11:55:56;;;;;;;5.27;4.50;;;;;;;;;;5053939;28;20847;-76
2023/07/01 11:58:30;;;;;;;6.30;5.00;;;;;;;;;;5054139;28;20473;-76
2023/07/01 12:00:58;;;;;;;10.80;5.20;;;;;;;;;;5054127;28;20483;-76
2023/07/01 12:03:25;;;;;;;6.50;5.90;;;;;;;;;;5053581;28;20801;-76
2023/07/01 12:05:53;;;;;;;7.20;5.57;;;;;;;;;;5054101;28;20440;-76
2023/07/01 12:08:20;;;;;;;6.37;4.70;;;;;;;;;;5053823;28;20507;-76
2023/07/01 12:10:47;;;;;;;6.23;4.60;;;;;;;;;;5053666;28;20530;-76
2023/07/01 12:13:30;;;;;;;5.53;4.80;;;;;;;;;;5054009;28;20456;-76
2023/07/01 12:15:59;;;;;;;5.00;4.60;;;;;;;;;;5054057;28;20542;-76
2023/07/01 12:18:28;;;;;;;4.87;4.40;;;;;;;;;;5053441;28;20448;-76
2023/07/01 12:20:55;;;;;;;4.83;3.93;;;;;;;;;;5053880;28;20473;-76
2023/07/01 12:23:23;;;;;;;5.53;5.03;;;;;;;;;;5053621;28;20868;-76
2023/07/01 12:25:50;;;;;;;7.80;5.20;;;;;;;;;;5052994;28;20455;-76
2023/07/01 12:28:17;;;;;;;5.23;4.73;;;;;;;;;;5053768;28;20465;-76
2023/07/01 12:30:44;;;;;;;4.90;4.40;;;;;;;;;;5053412;28;20845;-76
2023/07/01 12:33:13;;;;;;;6.53;4.80;;;;;;;;;;5053389;28;20532;-76
2023/07/01 12:35:41;;;;;;;5.37;4.87;;;;;;;;;;5053242;28;20492;-76
2023/07/01 12:38:11;;;;;;;4.10;3.60;;;;;;;;;;5053182;28;20468;-76
2023/07/01 12:40:38;;;;;;;7.60;4.80;;;;;;;;;;5052814;28;20488;-76
2023/07/01 12:43:06;;;;;;;6.07;4.27;;;;;;;;;;5053114;28;20453;-76
2023/07/01 12:45:34;;;;;;;6.87;4.10;;;;;;;;;;5053107;28;20510;-76
2023/07/01 12:48:01;;;;;;;8.73;4.97;;;;;;;;;;5053057;28;20510;-76
2023/07/01 12:50:29;;;;;;;4.70;4.20;;;;;;;;;;5052917;28;20507;-76
2023/07/01 12:52:57;;;;;;;4.17;3.77;;;;;;;;;;5053076;28;20464;-76
2023/07/01 12:55:24;;;;;;;7.53;3.93;;;;;;;;;;5052634;28;20528;-76
2023/07/01 12:57:52;;;;;;;4.60;4.20;;;;;;;;;;5053036;28;20558;-76
2023/07/01 13:00:19;;;;;;;4.37;3.60;;;;;;;;;;5052791;28;20477;-76
2023/07/01 13:02:47;;;;;;;4.80;3.80;;;;;;;;;;5052649;28;20902;-76
2023/07/01 13:05:15;;;;;;;6.87;4.13;;;;;;;;;;5052029;28;20445;-76
2023/07/01 13:07:44;;;;;;;5.70;3.80;;;;;;;;;;5052675;28;20543;-76
2023/07/01 13:10:12;;;;;;;4.07;3.67;;;;;;;;;;5052794;28;20468;-76
2023/07/01 13:12:40;;;;;;;5.93;5.23;;;;;;;;;;5072777;28;20455;-76
2023/07/01 13:15:20;;;;;;;4.87;3.97;;;;;;;;;;5072419;28;20590;-76
2023/07/01 13:17:49;;;;;;;5.50;4.70;;;;;;;;;;5072447;28;20815;-76
2023/07/01 13:20:16;;;;;;;5.37;4.87;;;;;;;;;;5072459;28;20475;-76
2023/07/01 13:22:44;;;;;;;4.40;3.83;;;;;;;;;;5072570;28;20452;-76
2023/07/01 13:25:18;;;;;;;6.03;3.87;;;;;;;;;;5072101;28;21033;-77
2023/07/01 13:27:45;;;;;;;7.13;4.20;;;;;;;;;;5072275;28;20533;-76
2023/07/01 13:30:26;;;;;;;3.87;3.23;;;;;;;;;;5072504;28;20480;-76
2023/07/01 13:32:54;;;;;;;6.47;5.77;;;;;;;;;;5073433;28;20508;-76
2023/07/01 13:35:22;;;;;;;6.53;4.90;;;;;;;;;;5072497;28;21094;-76
2023/07/01 13:37:50;;;;;;;6.80;4.17;;;;;;;;;;5072851;28;20452;-76
2023/07/01 13:40:17;;;;;;;4.60;4.00;;;;;;;;;;5073299;28;20790;-76
2023/07/01 13:42:46;;;;;;;5.80;4.97;;;;;;;;;;5073341;28;20459;-76
2023/07/01 13:45:23;;;;;;;4.63;3.40;;;;;;;;;;5073219;28;20498;-76
2023/07/01 13:47:50;;;;;;;4.23;3.70;;;;;;;;;;5073449;28;20458;-76
2023/07/01 13:50:19;;;;;;;4.77;3.13;;;;;;;;;;5073069;28;20476;-76
2023/07/01 13:52:46;;;;;;;5.40;3.70;;;;;;;;;;5073474;28;20880;-76
2023/07/01 13:55:18;;;;;;;4.23;3.83;;;;;;;;;;5073089;28;20495;-76
2023/07/01 13:57:47;;;;;;;3.83;3.43;;;;;;;;;;5073170;28;20439;-76
2023/07/01 14:00:23;;;;;;;7.23;3.70;;;;;;;;;;5073459;28;20825;-76
2023/07/01 14:02:50;;;;;;;6.40;3.93;;;;;;;;;;5073362;28;20459;-75
2023/07/01 14:05:18;;;;;;;7.53;5.03;;;;;;;;;;5073348;28;20810;-75
2023/07/01 14:07:45;;;;;;;4.27;3.40;;;;;;;;;;5073099;28;20452;-75
2023/07/01 14:10:28;;;;;;;6.47;4.20;;;;;;;;;;5072960;28;20559;-74
2023/07/01 14:12:56;;;;;;;4.67;3.60;;;;;;;;;;5073366;28;21013;-74
2023/07/01 14:15:36;;;;;;;4.50;3.30;;;;;;;;;;5073130;28;20494;-74
2023/07/01 14:18:03;;;;;;;5.07;3.17;;;;;;;;;;5072270;28;20451;-74
2023/07/01 14:20:30;;;;;;;3.47;3.17;;;;;;;;;;5072985;28;20475;-74
2023/07/01 14:22:59;;;;;;;6.57;3.80;;;;;;;;;;5073196;28;20933;-74
2023/07/01 14:25:33;;;;;;;3.43;3.13;;;;;;;;;;5072894;28;20933;-74
2023/07/01 14:28:02;;;;;;;3.90;3.17;;;;;;;;;;5063090;28;20453;-76
2023/07/01 14:30:48;;;;;;;4.17;3.77;;;;;;;;;;5052365;28;20969;-76
2023/07/01 14:33:16;;;;;;;5.40;3.30;;;;;;;;;;5052590;28;20464;-76
2023/07/01 14:35:43;;;;;;;6.43;5.37;;;;;;;;;;5052426;28;21000;-76